createdAt,value
2019-03-19T00:02:54.300Z,101799.94
2019-03-19T00:07:57.031Z,101809.44
2019-03-19T00:12:59.769Z,101802.04
2019-03-19T00:18:02.487Z,101819.78
2019-03-19T00:23:05.192Z,101819.31
2019-03-19T00:28:07.941Z,101825.38
2019-03-19T00:33:10.665Z,101842.27
2019-03-19T00:38:13.405Z,101840.48
2019-03-19T00:43:16.108Z,101846.56
2019-03-19T00:48:18.820Z,101855.20
2019-03-19T00:53:21.534Z,101851.71
2019-03-19T00:58:24.259Z,101864.67
2019-03-19T01:03:26.959Z,101871.48
2019-03-19T01:08:29.682Z,101871.53
2019-03-19T01:13:32.406Z,101865.44
2019-03-19T01:18:35.108Z,101864.09
2019-03-19T01:23:37.796Z,101861.55
2019-03-19T01:28:40.515Z,101851.97
2019-03-19T01:33:43.334Z,101870.13
2019-03-19T01:38:46.076Z,101873.55
2019-03-19T01:43:48.781Z,101874.42
2019-03-19T01:48:51.486Z,101879.64
2019-03-19T01:53:54.212Z,101882.68
2019-03-19T01:58:56.943Z,101899.97
2019-03-19T02:03:59.671Z,101891.78
2019-03-19T02:09:02.915Z,101892.59
2019-03-19T02:14:06.115Z,101897.45
2019-03-19T02:19:08.840Z,101904.78
2019-03-19T02:24:11.537Z,101914.34
2019-03-19T02:29:14.242Z,101908.23
2019-03-19T02:34:16.961Z,101925.13
2019-03-19T02:39:19.674Z,101919.45
2019-03-19T02:44:22.373Z,101932.84
2019-03-19T02:49:25.076Z,101934.95
2019-03-19T02:54:27.793Z,101943.03
2019-03-19T02:59:30.485Z,101940.01
2019-03-19T03:04:33.168Z,101932.20
2019-03-19T03:09:35.860Z,101945.55
2019-03-19T03:14:38.550Z,101944.55
2019-03-19T03:19:41.235Z,101947.98
2019-03-19T03:24:43.943Z,101950.94
2019-03-19T03:29:46.625Z,101965.13
2019-03-19T03:34:49.427Z,101967.16
2019-03-19T03:39:52.149Z,101975.29
2019-03-19T03:44:55.310Z,101977.87
2019-03-19T03:49:58.432Z,101981.70
2019-03-19T03:55:01.146Z,101979.49
2019-03-19T04:00:06.530Z,101984.19
2019-03-19T04:05:09.748Z,101994.14
2019-03-19T04:10:12.618Z,101988.54
2019-03-19T04:15:15.730Z,101992.41
2019-03-19T04:20:18.427Z,101999.25
2019-03-19T04:25:21.213Z,102011.45
2019-03-19T04:30:23.907Z,102026.84
2019-03-19T04:35:26.608Z,102027.63
2019-03-19T04:40:29.299Z,102034.05
2019-03-19T04:45:32.012Z,102032.75
2019-03-19T04:50:34.984Z,102033.65
2019-03-19T04:55:37.685Z,102031.09
2019-03-19T05:00:41.188Z,102037.97
2019-03-19T05:05:45.514Z,102039.64
2019-03-19T05:10:48.289Z,102029.77
2019-03-19T05:15:51.212Z,102050.03
2019-03-19T05:20:53.917Z,102053.89
2019-03-19T05:25:56.626Z,102059.42
2019-03-19T05:30:59.327Z,102060.72
2019-03-19T05:36:02.054Z,102068.03
2019-03-19T05:41:04.781Z,102067.13
2019-03-19T05:46:07.501Z,102070.52
2019-03-19T05:51:10.244Z,102076.52
2019-03-19T05:56:12.948Z,102072.44
2019-03-19T06:01:15.662Z,102080.27
2019-03-19T06:06:18.385Z,102089.41
2019-03-19T06:11:21.208Z,102096.42
2019-03-19T06:16:23.889Z,102025.19
2019-03-19T06:21:26.570Z,102124.90
2019-03-19T06:26:29.257Z,102123.34
2019-03-19T06:31:31.949Z,102133.86
2019-03-19T06:36:34.649Z,102141.41
2019-03-19T06:41:37.349Z,102138.15
2019-03-19T06:46:40.070Z,102141.28
2019-03-19T06:51:42.775Z,102142.80
2019-03-19T06:56:45.507Z,102152.06
2019-03-19T07:01:48.436Z,102166.83
2019-03-19T07:06:51.154Z,102175.99
2019-03-19T07:11:53.875Z,102185.64
2019-03-19T07:16:56.595Z,102188.80
2019-03-19T07:21:59.262Z,102195.91
2019-03-19T07:27:01.969Z,102206.95
2019-03-19T07:32:04.688Z,102206.25
2019-03-19T07:37:07.389Z,102204.22
2019-03-19T07:42:10.125Z,102209.63
2019-03-19T07:47:13.030Z,102213.23
2019-03-19T07:52:15.716Z,102221.16
2019-03-19T07:57:18.446Z,102228.64
2019-03-19T08:02:21.216Z,102227.89
2019-03-19T08:07:23.892Z,102235.35
2019-03-19T08:12:26.574Z,102240.19
2019-03-19T08:17:29.257Z,102237.25
2019-03-19T08:22:31.955Z,102236.86
2019-03-19T08:27:34.662Z,102241.65
2019-03-19T08:32:37.367Z,102247.34
2019-03-19T08:37:40.187Z,102256.91
2019-03-19T08:42:42.910Z,102261.27
2019-03-19T08:47:45.618Z,102262.59
2019-03-19T08:52:48.361Z,102269.55
2019-03-19T08:57:51.068Z,102270.39
2019-03-19T09:02:53.781Z,102276.91
2019-03-19T09:07:56.475Z,102282.08
2019-03-19T09:12:59.229Z,102274.63
2019-03-19T09:18:02.009Z,102277.67
2019-03-19T09:23:04.761Z,102282.88
2019-03-19T09:28:07.469Z,102282.80
2019-03-19T09:33:10.177Z,102287.13
2019-03-19T09:38:12.913Z,102285.30
2019-03-19T09:43:15.604Z,102282.98
2019-03-19T09:48:18.284Z,102293.59
2019-03-19T09:53:20.975Z,102299.08
2019-03-19T09:58:23.696Z,102295.78
2019-03-19T10:03:26.387Z,102303.52
2019-03-19T10:08:29.067Z,102312.20
2019-03-19T10:13:31.771Z,102306.59
2019-03-19T10:18:34.455Z,102316.94
2019-03-19T10:23:37.153Z,102318.95
2019-03-19T10:28:39.939Z,102323.83
2019-03-19T10:33:42.630Z,102318.53
2019-03-19T10:38:45.329Z,102326.65
2019-03-19T10:43:48.015Z,102322.79
2019-03-19T10:48:50.731Z,102321.26
2019-03-19T10:53:53.414Z,102325.76
2019-03-19T10:58:56.108Z,102331.17
2019-03-19T11:03:58.795Z,102335.66
2019-03-19T11:09:01.485Z,102329.20
2019-03-19T11:14:04.180Z,102332.20
2019-03-19T11:19:06.871Z,102331.98
2019-03-19T11:24:09.583Z,102343.34
2019-03-19T11:29:12.258Z,102342.55
2019-03-19T11:34:14.941Z,102346.25
2019-03-19T11:39:17.642Z,102347.63
2019-03-19T11:44:20.358Z,102352.61
2019-03-19T11:49:23.090Z,102347.93
2019-03-19T11:54:25.791Z,102354.17
2019-03-19T11:59:28.492Z,102350.73
2019-03-19T12:04:31.188Z,102352.41
2019-03-19T12:09:33.891Z,102354.10
2019-03-19T12:14:36.624Z,102353.20
2019-03-19T12:19:39.417Z,102349.23
2019-03-19T12:24:42.206Z,102342.48
2019-03-19T12:29:44.891Z,102339.92
2019-03-19T12:34:47.592Z,102340.82
2019-03-19T12:39:50.303Z,102346.26
2019-03-19T12:44:53.008Z,102336.64
2019-03-19T12:49:55.687Z,102343.37
2019-03-19T12:54:58.376Z,102356.31
2019-03-19T13:00:01.062Z,102344.52
2019-03-19T13:05:04.499Z,102350.39
2019-03-19T13:10:10.903Z,102342.75
2019-03-19T13:15:14.668Z,102331.02
2019-03-19T13:20:17.369Z,102325.17
2019-03-19T13:25:20.078Z,102344.28
2019-03-19T13:30:22.806Z,102343.84
2019-03-19T13:35:25.510Z,102353.27
2019-03-19T13:40:28.188Z,102352.05
2019-03-19T13:45:30.890Z,102342.31
2019-03-19T13:50:33.594Z,102348.21
2019-03-19T13:55:36.319Z,102355.08
2019-03-19T14:00:39.038Z,102355.14
2019-03-19T14:05:41.750Z,102361.00
2019-03-19T14:10:44.454Z,102353.34
2019-03-19T14:15:47.155Z,102350.79
2019-03-19T14:20:49.831Z,102362.25
2019-03-19T14:25:52.562Z,102371.61
2019-03-19T14:31:07.667Z,102369.63
2019-03-19T14:35:59.932Z,102370.73
2019-03-19T14:41:02.639Z,102365.02
2019-03-19T14:46:05.342Z,102369.66
2019-03-19T14:51:08.037Z,102371.84
2019-03-19T14:56:10.727Z,102383.05
2019-03-19T15:01:19.384Z,102392.20
2019-03-19T15:06:18.082Z,102384.75
2019-03-19T15:11:20.781Z,102381.11
2019-03-19T15:16:23.499Z,102381.55
2019-03-19T15:21:26.201Z,102382.66
2019-03-19T15:26:28.893Z,102387.91
2019-03-19T15:31:31.754Z,102395.10
2019-03-19T15:36:34.444Z,102385.23
2019-03-19T15:41:37.173Z,102391.52
2019-03-19T15:46:39.908Z,102394.23
2019-03-19T15:51:42.619Z,102398.81
2019-03-19T15:56:45.303Z,102399.02
2019-03-19T16:01:48.009Z,102335.33
2019-03-19T16:06:50.712Z,102403.55
2019-03-19T16:11:53.394Z,102400.82
2019-03-19T16:16:56.106Z,102399.91
2019-03-19T16:21:58.800Z,102408.12
2019-03-19T16:27:01.504Z,102412.23
2019-03-19T16:32:04.201Z,102412.79
2019-03-19T16:37:06.897Z,102416.17
2019-03-19T16:42:09.602Z,102417.66
2019-03-19T16:47:12.299Z,102423.30
2019-03-19T16:52:15.029Z,102429.73
2019-03-19T16:57:17.865Z,102438.56
2019-03-19T17:02:20.590Z,102438.84
2019-03-19T17:07:23.300Z,102446.09
2019-03-19T17:12:25.992Z,102444.25
2019-03-19T17:17:28.692Z,102452.33
2019-03-19T17:22:31.427Z,102459.14
2019-03-19T17:27:34.142Z,102456.70
2019-03-19T17:32:36.844Z,102470.75
2019-03-19T17:37:39.600Z,102477.81
2019-03-19T17:42:42.350Z,102474.84
2019-03-19T17:47:45.154Z,102470.12
2019-03-19T17:52:49.056Z,102475.34
2019-03-19T17:57:51.790Z,102478.45
2019-03-19T18:02:54.484Z,102481.05
2019-03-19T18:07:57.188Z,102483.64
2019-03-19T18:12:59.952Z,102484.91
2019-03-19T18:18:02.744Z,102484.00
2019-03-19T18:23:05.575Z,102489.66
2019-03-19T18:28:08.308Z,102491.77
2019-03-19T18:33:11.032Z,102506.94
2019-03-19T18:38:13.855Z,102512.94
2019-03-19T18:43:16.574Z,102514.23
2019-03-19T18:48:19.333Z,102513.30
2019-03-19T18:53:22.013Z,102521.50
2019-03-19T19:03:26.998Z,102535.26
2019-03-19T19:08:29.682Z,102535.17
2019-03-19T19:13:32.365Z,102546.86
2019-03-19T19:18:35.108Z,102544.98
2019-03-19T19:23:37.803Z,102550.58
2019-03-19T19:28:41.748Z,102566.99
2019-03-19T19:33:44.438Z,102571.66
2019-03-19T19:38:47.124Z,102573.75
2019-03-19T19:43:49.809Z,102585.34
2019-03-19T19:48:52.603Z,102593.59
2019-03-19T19:53:55.296Z,102590.60
2019-03-19T19:58:58.010Z,102600.55
2019-03-19T20:04:00.699Z,102605.70
2019-03-19T20:09:06.446Z,102610.36
2019-03-19T20:14:10.174Z,102614.97
2019-03-19T20:19:13.016Z,102621.83
2019-03-19T20:24:15.716Z,102616.95
2019-03-19T20:29:18.427Z,102628.94
2019-03-19T20:34:21.109Z,102631.86
2019-03-19T20:39:23.794Z,102633.16
2019-03-19T20:44:26.498Z,102634.30
2019-03-19T20:49:31.258Z,102633.43
2019-03-19T20:54:33.951Z,102636.66
2019-03-19T20:59:36.871Z,102633.17
2019-03-19T21:04:39.570Z,102645.34
2019-03-19T21:09:42.250Z,102648.45
2019-03-19T21:14:44.959Z,102653.05
2019-03-19T21:19:47.669Z,102666.50
2019-03-19T21:24:50.361Z,102665.97
2019-03-19T21:29:53.062Z,102671.22
2019-03-19T21:34:55.762Z,102677.24
2019-03-19T21:39:58.474Z,102677.27
2019-03-19T21:45:01.150Z,102674.19
2019-03-19T21:50:04.759Z,102681.85
2019-03-19T21:55:07.815Z,102677.55
2019-03-19T22:00:13.368Z,102681.02
2019-03-19T22:05:16.048Z,102687.09
2019-03-19T22:10:19.390Z,102677.47
2019-03-19T22:15:22.303Z,102670.85
2019-03-19T22:20:24.992Z,102666.52
2019-03-19T22:25:27.695Z,102574.00
2019-03-19T22:30:30.410Z,102651.52
2019-03-19T22:35:33.101Z,102649.89
2019-03-19T22:40:35.784Z,102652.02
2019-03-19T22:45:38.475Z,102661.59
2019-03-19T22:50:41.213Z,102657.16
2019-03-19T22:55:43.931Z,102666.09
2019-03-19T23:00:49.645Z,102667.57
2019-03-19T23:05:52.332Z,102676.78
2019-03-19T23:10:55.045Z,102673.25
2019-03-19T23:15:57.766Z,102675.44
2019-03-19T23:21:00.473Z,102678.39
2019-03-19T23:26:03.272Z,102685.24
2019-03-19T23:31:05.977Z,102681.34
2019-03-19T23:36:08.694Z,102685.71
2019-03-19T23:41:11.508Z,102692.58
2019-03-19T23:46:14.194Z,102689.91
2019-03-19T23:51:16.881Z,102694.11
2019-03-19T23:56:19.583Z,102693.19
